Time;durP1;ratioP1;P1;durP2;ratioP2;P2;SDS_P1;SDS_P2;PMS_P1;PMS_P2;Temp;Humidity;BMP_temperature;BMP_pressure;BME280_temperature;BME280_humidity;BME280_pressure;Samples;Min_cycle;Max_cycle;Signal;HPM_P1;HPM_P2
2023/01/12 00:01:45;;;;;;;26.73;14.60;;;;;;;2.95;77.40;93129.88;2068556;69;20147;-77
2023/01/12 00:04:14;;;;;;;27.08;13.73;;;;;;;2.99;77.24;93127.47;2068230;69;20148;-78
2023/01/12 00:06:40;;;;;;;27.15;14.52;;;;;;;3.03;77.02;93125.81;2065255;69;20141;-77
2023/01/12 00:09:06;;;;;;;32.95;16.85;;;;;;;2.94;77.59;93115.22;2068079;69;20191;-76
2023/01/12 00:11:34;;;;;;;29.83;16.02;;;;;;;2.88;76.55;93116.66;2068569;69;20228;-75
2023/01/12 00:13:59;;;;;;;30.33;15.80;;;;;;;2.86;76.91;93122.03;2068641;69;20144;-76
2023/01/12 00:16:38;;;;;;;28.42;14.77;;;;;;;2.92;75.98;93114.28;2067948;69;20145;-76
2023/01/12 00:19:16;;;;;;;23.30;13.68;;;;;;;2.90;75.91;93120.38;2068176;69;20588;-73
2023/01/12 00:21:49;;;;;;;20.35;11.98;;;;;;;2.80;76.61;93130.56;2067948;69;20140;-74
2023/01/12 00:24:19;;;;;;;20.88;12.13;;;;;;;2.65;77.81;93145.13;2068503;69;20128;-77
2023/01/12 00:26:46;;;;;;;29.00;14.70;;;;;;;2.36;80.19;93147.19;2067955;69;20156;-76
2023/01/12 00:29:12;;;;;;;25.08;14.68;;;;;;;2.40;79.02;93153.16;2067946;69;20156;-74
2023/01/12 00:31:38;;;;;;;24.75;13.77;;;;;;;2.59;78.16;93143.78;2067648;69;20635;-75
2023/01/12 00:34:04;;;;;;;23.25;13.68;;;;;;;2.58;77.12;93161.78;2068601;69;20149;-74
2023/01/12 00:36:29;;;;;;;23.13;13.68;;;;;;;2.55;78.14;93169.91;2068422;69;20592;-74
2023/01/12 00:38:55;;;;;;;24.35;12.98;;;;;;;2.54;76.77;93170.47;2068484;69;20172;-74
2023/01/12 00:46:49;;;;;;;19.35;11.60;;;;;;;2.43;76.65;93174.28;2068218;69;20278;-73
2023/01/12 00:49:15;;;;;;;21.40;11.00;;;;;;;2.44;77.60;93177.81;2067834;69;20233;-75
2023/01/12 00:51:41;;;;;;;18.60;11.10;;;;;;;2.45;77.61;93177.25;2068383;69;20176;-74
2023/01/12 00:54:07;;;;;;;28.08;13.50;;;;;;;2.43;77.21;93185.41;2068436;69;20160;-74
2023/01/12 00:56:34;;;;;;;25.40;15.35;;;;;;;2.35;77.41;93183.88;2065070;69;20245;-72
2023/01/12 00:59:00;;;;;;;28.48;15.43;;;;;;;2.43;78.47;93192.97;2067793;69;20574;-74
2023/01/12 01:01:25;;;;;;;26.58;14.75;;;;;;;2.41;77.33;93193.53;2067717;69;20639;-74
2023/01/12 01:03:51;;;;;;;22.25;14.18;;;;;;;2.46;77.43;93195.41;2068398;69;20232;-75
2023/01/12 01:06:17;;;;;;;23.83;13.95;;;;;;;2.43;78.49;93196.53;2068364;69;20204;-74
2023/01/12 01:08:42;;;;;;;24.33;13.65;;;;;;;2.45;78.24;93201.53;2067878;69;20529;-75
2023/01/12 01:11:11;;;;;;;28.15;13.68;;;;;;;2.39;78.82;93192.59;2067796;69;20656;-74
2023/01/12 01:13:44;;;;;;;24.83;13.52;;;;;;;2.47;77.62;93193.38;2068329;69;20605;-73
2023/01/12 01:16:11;;;;;;;;;;;;;;;2.53;77.55;93191.94;2068633;69;20142;-73
2023/01/12 01:18:37;;;;;;;;;;;;;;;2.50;77.74;93184.69;2068364;69;20395;-74
2023/01/12 01:21:03;;;;;;;;;;;;;;;2.33;77.59;93180.88;2068528;69;20064;-74
2023/01/12 01:23:31;;;;;;;;;;;;;;;2.33;78.30;93180.88;2068046;69;20473;-74
2023/01/12 01:26:01;;;;;;;;;;;;;;;2.24;77.64;93152.28;2068598;69;20037;-73
2023/01/12 01:28:26;;;;;;;;;;;;;;;2.38;78.23;93164.03;2068459;69;20132;-73
2023/01/12 01:30:52;;;;;;;;;;;;;;;2.29;78.70;93172.88;2070249;69;20159;-74
2023/01/12 01:33:17;;;;;;;;;;;;;;;2.37;77.89;93182.00;2071660;69;20052;-76
2023/01/12 01:35:42;;;;;;;;;;;;;;;2.40;77.40;93177.41;2068595;69;20040;-74
2023/01/12 01:38:08;;;;;;;;;;;;;;;2.34;77.07;93180.34;2071944;69;20040;-75
2023/01/12 01:40:33;;;;;;;;;;;;;;;2.39;76.48;93175.94;2068429;69;20542;-76
2023/01/12 01:42:59;;;;;;;;;;;;;;;2.26;77.66;93180.28;2071885;69;20442;-76
2023/01/12 01:45:25;;;;;;;;;;;;;;;2.06;80.52;93192.16;2068486;69;20044;-74
2023/01/12 01:47:52;;;;;;;;;;;;;;;2.24;79.44;93204.34;2071728;69;20060;-76
2023/01/12 01:50:21;;;;;;;;;;;;;;;2.32;78.42;93201.63;2071910;69;20040;-75
2023/01/12 01:52:56;;;;;;;;;;;;;;;1.95;80.08;93206.34;2071857;69;20360;-74
2023/01/12 01:55:28;;;;;;;;;;;;;;;2.02;80.64;93220.31;2072020;69;20040;-74
2023/01/12 01:57:55;;;;;;;;;;;;;;;1.94;79.20;93221.53;2071924;69;20044;-76
2023/01/12 02:00:21;;;;;;;;;;;;;;;1.89;79.59;93222.41;2071915;69;20231;-75
2023/01/12 02:02:47;;;;;;;;;;;;;;;1.98;78.88;93222.66;2071570;69;20498;-76
2023/01/12 02:05:15;;;;;;;;;;;;;;;2.04;78.38;93211.41;2068410;69;20068;-75
2023/01/12 02:07:41;;;;;;;;;;;;;;;2.09;78.03;93204.22;2071656;69;20041;-74
2023/01/12 02:10:07;;;;;;;;;;;;;;;2.05;77.44;93193.47;2071758;69;20052;-73
2023/01/12 02:18:03;;;;;;;;;;;;;;;1.83;79.09;93197.53;2071521;69;20481;-74
2023/01/12 02:20:35;;;;;;;;;;;;;;;1.53;80.33;93186.91;2068282;69;20055;-75
2023/01/12 02:23:10;;;;;;;;;;;;;;;1.82;80.08;93189.75;2067966;69;20492;-75
2023/01/12 02:25:44;;;;;;;;;;;;;;;1.87;79.20;93184.06;2071702;69;20577;-76
2023/01/12 02:28:16;;;;;;;;;;;;;;;1.83;78.77;93180.88;2068272;69;20048;-74
2023/01/12 02:30:41;;;;;;;;;;;;;;;1.87;77.79;93169.44;2071119;69;20045;-75
2023/01/12 02:33:19;;;;;;;;;;;;;;;1.94;78.69;93168.75;2071504;69;20530;-74
2023/01/12 02:36:00;;;;;;;;;;;;;;;1.94;77.35;93168.75;2071721;69;20052;-74
2023/01/12 02:38:28;;;;;;;;;;;;;;;1.90;78.46;93173.91;2071541;69;20040;-74
2023/01/12 02:41:02;;;;;;;;;;;;;;;1.93;79.68;93170.06;2071602;69;20149;-74
2023/01/12 02:43:29;;;;;;;;;;;;;;;1.95;79.59;93167.47;2071555;69;20043;-74
2023/01/12 02:46:17;;;;;;;;;;;;;;;1.98;79.12;93172.69;2071630;69;20044;-75
2023/01/12 02:48:43;;;;;;;;;;;;;;;1.82;79.27;93159.97;2071634;69;20091;-75
2023/01/12 02:51:30;;;;;;;;;;;;;;;1.81;80.27;93161.25;2070042;69;20057;-75
2023/01/12 02:54:25;;;;;;;;;;;;;;;1.89;78.96;93166.88;2071213;69;20055;-75
2023/01/12 02:56:52;;;;;;;;;;;;;;;1.91;78.44;93161.50;2057027;69;20121;-75
2023/01/12 02:59:25;;;;;;;;;;;;;;;1.67;78.14;93162.63;2056957;69;20066;-75
2023/01/12 03:01:53;;;;;;;;;;;;;;;1.63;79.43;93174.03;2056372;69;20065;-75
2023/01/12 03:04:19;;;;;;;;;;;;;;;1.23;81.74;93179.75;2057202;69;20592;-74
2023/01/12 03:07:04;;;;;;;;;;;;;;;1.28;81.45;93180.91;2057178;69;20437;-75
2023/01/12 03:09:34;;;;;;;;;;;;;;;1.57;79.45;93170.66;2054516;69;20061;-74
2023/01/12 03:12:01;;;;;;;;;;;;;;;0.94;82.63;93169.81;2057281;69;20057;-75
2023/01/12 03:14:28;;;;;;;;;;;;;;;1.31;81.29;93162.47;2057132;69;20042;-74
2023/01/12 03:16:55;;;;;;;;;;;;;;;1.47;79.29;93167.63;2057012;69;20100;-76
2023/01/12 03:19:26;;;;;;;;;;;;;;;1.30;79.35;93166.53;2057467;69;20416;-77
2023/01/12 03:21:59;;;;;;;;;;;;;;;1.46;79.96;93182.75;2054672;69;20034;-74
2023/01/12 03:24:30;;;;;;;;;;;;;;;1.44;79.27;93177.03;2057432;69;20507;-74
2023/01/12 03:27:06;;;;;;;;;;;;;;;1.44;78.60;93170.72;2057430;69;20069;-76
2023/01/12 03:29:38;;;;;;;;;;;;;;;1.44;78.76;93173.50;2057424;69;20053;-74
2023/01/12 03:32:05;;;;;;;;;;;;;;;1.48;78.93;93163.56;2057858;69;20054;-74
2023/01/12 03:34:32;;;;;;;;;;;;;;;1.17;80.02;93172.84;2072264;69;20044;-74
2023/01/12 03:37:02;;;;;;;;;;;;;;;1.15;81.79;93178.94;2071894;69;20052;-74
2023/01/12 03:39:43;;;;;;;;;;;;;;;1.35;81.54;93177.47;2071899;69;20044;-74
2023/01/12 03:42:08;;;;;;;;;;;;;;;1.50;80.17;93171.34;2072049;69;20098;-74
2023/01/12 03:44:39;;;;;;;;;;;;;;;1.26;82.07;93178.69;2072151;69;20041;-74
2023/01/12 03:47:17;;;;;;;;;;;;;;;1.46;81.28;93182.03;2065791;69;20076;-74
2023/01/12 03:49:45;;;;;;;;;;;;;;;1.60;80.31;93194.53;2072135;69;20526;-74
2023/01/12 03:52:11;;;;;;;;;;;;;;;1.80;79.52;93190.31;2068779;69;20057;-75
2023/01/12 03:54:38;;;;;;;;;;;;;;;1.75;80.27;93183.59;2068767;69;20044;-75
2023/01/12 03:57:05;;;;;;;;;;;;;;;1.52;82.01;93191.72;2072093;69;20052;-74
2023/01/12 03:59:32;;;;;;;;;;;;;;;1.18;82.67;93194.50;2072139;69;20037;-75
2023/01/12 04:01:58;;;;;;;;;;;;;;;1.14;84.14;93193.34;2071950;69;20488;-75
2023/01/12 04:04:23;;;;;;;;;;;;;;;1.08;84.99;93198.28;2068744;69;20045;-74
2023/01/12 04:06:49;;;;;;;;;;;;;;;1.42;84.09;93193.47;2068718;69;20047;-77
2023/01/12 04:09:14;;;;;;;;;;;;;;;1.60;83.89;93186.22;2072123;69;20628;-77
2023/01/12 04:14:24;;;;;;;;;;;;;;;1.72;82.28;93201.34;2071968;69;20043;-74
2023/01/12 04:16:49;;;;;;;;;;;;;;;1.81;82.75;93211.22;2068495;69;20131;-76
2023/01/12 04:19:15;;;;;;;;;;;;;;;1.86;82.54;93218.66;2068666;69;20131;-74
2023/01/12 04:24:24;;;;;;;;;;;;;;;1.96;82.49;93230.03;2072012;69;20050;-74
2023/01/12 04:26:50;;;;;;;;;;;;;;;1.86;82.41;93218.66;2072069;69;20044;-75
2023/01/12 04:29:15;;;;;;;;;;;;;;;1.99;82.54;93218.59;2072427;69;20048;-77
2023/01/12 04:31:41;;;;;;;;;;;;;;;1.72;82.25;93206.88;2071847;69;20133;-75
2023/01/12 04:34:06;;;;;;;;;;;;;;;1.29;84.23;93190.00;2068626;69;20140;-75
2023/01/12 04:36:32;;;;;;;;;;;;;;;1.25;84.09;93179.97;2072308;69;20049;-74
2023/01/12 04:38:57;;;;;;;;;;;;;;;1.47;84.26;93158.56;2068598;69;20158;-74
2023/01/12 04:41:22;;;;;;;;;;;;;;;1.17;84.26;93150.66;2071809;69;20467;-76
2023/01/12 04:43:48;;;;;;;;;;;;;;;1.52;83.97;93158.41;2068353;69;20096;-77
2023/01/12 04:46:13;;;;;;;;;;;;;;;1.74;82.23;93157.13;2071744;69;20048;-75
2023/01/12 04:48:42;;;;;;;;;;;;;;;1.75;80.74;93174.53;2071515;69;20052;-75
2023/01/12 04:51:08;;;;;;;;;;;;;;;1.68;81.10;93198.16;2071906;69;20052;-75
2023/01/12 04:53:33;;;;;;;;;;;;;;;1.81;80.74;93202.16;2068647;69;20415;-75
2023/01/12 04:56:01;;;;;;;;;;;;;;;1.63;81.57;93212.16;2072114;69;20117;-74
2023/01/12 04:58:27;;;;;;;;;;;;;;;1.81;81.61;93211.22;2071948;69;20480;-74
2023/01/12 05:00:52;;;;;;;;;;;;;;;1.92;81.10;93199.81;2071999;69;20057;-75
2023/01/12 05:03:18;;;;;;;;;;;;;;;1.83;81.39;93194.75;2071813;69;20140;-77
2023/01/12 05:05:43;;;;;;;;;;;;;;;1.62;81.20;93185.69;2071891;69;20109;-75
2023/01/12 05:10:55;;;;;;;;;;;;;;;1.62;82.73;93200.31;2072009;69;20064;-74
2023/01/12 05:13:21;;;;;;;;;;;;;;;1.53;82.54;93201.53;2071888;69;20187;-77
2023/01/12 05:15:46;;;;;;;;;;;;;;;1.55;83.85;93203.75;2071937;69;20044;-77
2023/01/12 05:18:12;;;;;;;;;;;;;;;1.73;82.60;93204.84;2071702;69;20400;-75
2023/01/12 05:20:37;;;;;;;;;;;;;;;1.72;82.23;93209.66;2071613;69;20134;-74
2023/01/12 05:23:03;;;;;;;;;;;;;;;1.57;82.09;93200.47;2071700;69;20510;-77
2023/01/12 05:25:30;;;;;;;;;;;;;;;1.71;82.73;93194.28;2071587;69;20488;-74
2023/01/12 05:27:56;;;;;;;;;;;;;;;1.57;82.47;93181.03;2068464;69;20469;-77
2023/01/12 05:30:22;;;;;;;;;;;;;;;0.99;84.05;93168.97;2071747;69;20483;-75
2023/01/12 05:32:47;;;;;;;;;;;;;;;1.40;83.30;93176.59;2068403;69;20131;-76
2023/01/12 05:35:13;;;;;;;;;;;;;;;1.35;82.82;93168.41;2071811;69;20134;-77
2023/01/12 05:37:38;;;;;;;;;;;;;;;1.53;81.92;93173.78;2071727;69;20045;-77
2023/01/12 05:40:04;;;;;;;;;;;;;;;1.55;81.94;93170.44;2071780;69;20099;-74
2023/01/12 05:45:14;;;;;;;;;;;;;;;1.23;84.02;93179.75;2071772;69;20464;-75
2023/01/12 05:47:40;;;;;;;;;;;;;;;1.44;83.00;93176.28;2071735;69;20112;-75
2023/01/12 05:50:05;;;;;;;;;;;;;;;1.38;82.82;93175.66;2071805;69;20080;-74
2023/01/12 05:52:31;;;;;;;;;;;;;;;1.31;83.27;93179.84;2068328;69;20045;-76
2023/01/12 05:54:56;;;;;;;;;;;;;;;1.44;82.78;93187.38;2071868;69;20129;-75
2023/01/12 05:57:22;;;;;;;;;;;;;;;1.40;82.13;93190.47;2071857;69;20152;-73
2023/01/12 05:59:47;;;;;;;;;;;;;;;0.81;84.12;93195.53;2071972;69;20055;-75
2023/01/12 06:02:16;;;;;;;;;;;;;;;1.21;83.78;93201.75;2071703;69;20562;-75
2023/01/12 06:04:44;;;;;;;;;;;;;;;1.29;83.12;93203.88;2071862;69;20506;-78
2023/01/12 06:07:11;;;;;;;;;;;;;;;1.16;83.12;93193.56;2071837;69;20048;-77
2023/01/12 06:09:36;;;;;;;;;;;;;;;1.14;83.50;93196.84;2072250;69;20040;-76
2023/01/12 06:14:46;;;;;;;;;;;;;;;1.26;82.18;93187.00;2071835;69;20045;-76
2023/01/12 06:17:11;;;;;;;;;;;;;;;1.08;82.19;93187.91;2071948;69;20101;-75
2023/01/12 06:19:37;;;;;;;;;;;;;;;1.14;82.99;93190.56;2071794;69;20040;-75
2023/01/12 06:22:05;;;;;;;;;;;;;;;1.14;82.31;93199.63;2071960;69;20065;-76
2023/01/12 06:24:31;;;;;;;;;;;;;;;0.87;83.62;93207.28;2068471;69;20043;-75
2023/01/12 06:26:57;;;;;;;;;;;;;;;1.22;82.13;93189.38;2071797;69;20040;-74
2023/01/12 06:29:23;;;;;;;;;;;;;;;1.20;81.75;93180.09;2071793;69;20052;-75
2023/01/12 06:31:48;;;;;;;;;;;;;;;1.23;81.39;93185.31;2071581;69;20053;-76
2023/01/12 06:34:13;;;;;;;;;;;;;;;1.37;80.57;93185.25;2071780;69;20151;-74
2023/01/12 06:36:39;;;;;;;;;;;;;;;1.26;80.40;93189.03;2068505;69;20047;-76
2023/01/12 06:39:04;;;;;;;;;;;;;;;1.30;80.13;93180.38;2071821;69;20049;-75
2023/01/12 06:44:16;;;;;;;;;;;;;;;1.08;81.97;93193.47;2071827;69;20049;-76
2023/01/12 06:46:41;;;;;;;;;;;;;;;1.05;81.91;93188.97;2068458;69;20052;-77
2023/01/12 06:49:06;;;;;;;;;;;;;;;1.20;81.76;93183.63;2071797;69;20151;-74
2023/01/12 06:51:32;;;;;;;;;;;;;;;1.27;80.53;93187.75;2068504;69;20052;-77
2023/01/12 06:53:57;;;;;;;;;;;;;;;1.34;80.12;93183.59;2071851;69;20080;-78
2023/01/12 06:56:23;;;;;;;;;;;;;;;0.92;81.99;93186.25;2071819;69;20068;-75
2023/01/12 06:58:48;;;;;;;;;;;;;;;1.00;81.22;93181.53;2071783;69;20131;-77
2023/01/12 07:01:14;;;;;;;;;;;;;;;0.90;81.30;93174.94;2068298;69;20055;-77
2023/01/12 07:03:39;;;;;;;;;;;;;;;0.98;81.29;93184.13;2071582;69;20044;-74
2023/01/12 07:06:05;;;;;;;;;;;;;;;1.11;80.53;93181.31;2072070;69;20044;-76
2023/01/12 07:08:30;;;;;;;;;;;;;;;0.90;81.44;93188.81;2065879;69;20041;-76
2023/01/12 07:10:59;;;;;;;;;;;;;;;0.92;81.22;93177.94;2068737;69;20497;-75
2023/01/12 07:13:24;;;;;;;;;;;;;;;1.01;80.72;93196.91;2072124;69;20044;-76
2023/01/12 07:15:51;;;;;;;;;;;;;;;1.04;80.45;93193.03;2072194;69;20172;-74
2023/01/12 07:18:16;;;;;;;;;;;;;;;0.86;80.36;93183.59;2071927;69;20044;-74
2023/01/12 07:20:42;;;;;;;;;;;;;;;0.83;82.12;93209.63;2068680;69;20420;-76
2023/01/12 07:23:07;;;;;;;;;;;;;;;0.93;81.54;93193.28;2068573;69;20083;-73
2023/01/12 07:25:33;;;;;;;;;;;;;;;1.00;80.53;93187.09;2071958;69;20071;-75
2023/01/12 07:27:58;;;;;;;;;;;;;;;0.74;81.75;93196.22;2071943;69;20040;-76
2023/01/12 07:30:24;;;;;;;;;;;;;;;0.87;81.80;93198.19;2071820;69;20059;-77
2023/01/12 07:32:50;;;;;;;;;;;;;;;0.80;81.09;93190.53;2071805;69;20044;-74
2023/01/12 07:35:16;;;;;;;;;;;;;;;0.59;82.87;93202.28;2071963;69;20119;-74
2023/01/12 07:37:48;;;;;;;;;;;;;;;0.85;82.07;93209.09;2071931;69;20048;-76
2023/01/12 07:40:14;;;;;;;;;;;;;;;1.00;81.00;93210.00;2072174;69;20060;-78
2023/01/12 07:42:39;;;;;;;;;;;;;;;0.76;81.11;93205.47;2068784;69;20040;-74
2023/01/12 07:45:05;;;;;;;;;;;;;;;0.88;80.83;93214.31;2068806;69;20051;-73
2023/01/12 07:47:30;;;;;;;;;;;;;;;0.96;81.70;93215.16;2071924;69;20041;-78
2023/01/12 07:49:56;;;;;;;;;;;;;;;0.82;82.44;93219.22;2071931;69;20072;-74
2023/01/12 07:52:21;;;;;;;;;;;;;;;1.05;82.00;93210.44;2072023;69;20081;-75
2023/01/12 07:54:47;;;;;;;;;;;;;;;1.16;81.23;93224.81;2071968;69;20421;-79
2023/01/12 07:57:12;;;;;;;;;;;;;;;1.20;81.34;93227.25;2068712;69;20476;-76
2023/01/12 07:59:38;;;;;;;;;;;;;;;0.88;81.79;93219.13;2068780;69;20048;-75
2023/01/12 08:02:04;;;;;;;;;;;;;;;0.92;82.82;93225.06;2068531;69;20072;-75
2023/01/12 08:04:29;;;;;;;;;;;;;;;1.26;82.82;93227.88;2072141;69;20045;-75
2023/01/12 08:06:55;;;;;;;;;;;;;;;1.36;81.95;93233.72;2068760;69;20041;-74
2023/01/12 08:09:21;;;;;;;;;;;;;;;0.96;82.42;93231.03;2072071;69;20140;-73
2023/01/12 08:11:46;;;;;;;;;;;;;;;1.33;82.70;93241.09;2071925;69;20068;-76
2023/01/12 08:14:21;;;;;;;;;;;;;;;1.43;82.23;93233.06;2072105;69;20087;-73
2023/01/12 08:16:48;;;;;;;;;;;;;;;1.27;82.21;93227.31;2068585;69;20080;-73
2023/01/12 08:19:17;;;;;;;;;;;;;;;0.90;82.99;93242.22;2068785;69;20061;-75
2023/01/12 08:21:44;;;;;;;;;;;;;;;1.16;83.67;93244.22;2068283;69;20053;-77
2023/01/12 08:24:12;;;;;;;;;;;;;;;1.37;82.79;93243.50;2065663;69;20041;-76
2023/01/12 08:26:41;;;;;;;;;;;;;;;1.31;82.35;93237.34;2068769;69;20136;-74
2023/01/12 08:29:13;;;;;;;;;;;;;;;1.53;81.94;93223.00;2068822;69;20140;-75
2023/01/12 08:31:39;;;;;;;;;;;;;;;1.39;81.62;93219.50;2068566;69;20045;-74
2023/01/12 08:34:06;;;;;;;;;;;;;;;1.35;82.63;93235.75;2068713;69;20045;-76
2023/01/12 08:36:32;;;;;;;;;;;;;;;1.41;82.14;93224.50;2068716;69;20146;-77
2023/01/12 08:38:57;;;;;;;;;;;;;;;1.36;82.23;93222.63;2068704;69;20103;-76
2023/01/12 08:41:32;;;;;;;;;;;;;;;1.44;82.63;93223.44;2065361;69;20160;-73
2023/01/12 08:44:09;;;;;;;;;;;;;;;1.59;82.11;93223.59;2068778;69;20060;-78
2023/01/12 08:46:36;;;;;;;;;;;;;;;1.55;81.87;93233.53;2068595;69;20485;-74
2023/01/12 08:49:10;;;;;;;;;;;;;;;1.79;82.18;93238.78;2068132;69;20049;-74
2023/01/12 08:51:38;;;;;;;;;;;;;;;2.06;81.52;93221.97;2068693;69;20119;-75
2023/01/12 08:54:04;;;;;;;;;;;;;;;1.66;81.31;93225.72;2068679;69;20068;-74
2023/01/12 08:56:29;;;;;;;;;;;;;;;1.71;82.41;93219.28;2068700;69;20040;-77
2023/01/12 08:58:55;;;;;;;;;;;;;;;1.97;81.89;93225.97;2068823;69;20048;-76
2023/01/12 09:01:20;;;;;;;;;;;;;;;1.97;81.23;93229.53;2068018;69;20428;-76
2023/01/12 09:03:47;;;;;;;;;;;;;;;2.11;80.73;93243.31;2068663;69;20052;-75
2023/01/12 09:06:16;;;;;;;;;;;;;;;2.17;81.10;93230.78;2065418;69;20053;-74
2023/01/12 09:08:41;;;;;;;;;;;;;;;2.50;80.72;93240.28;2068685;69;20562;-74
2023/01/12 09:11:07;;;;;;;;;;;;;;;2.66;80.28;93241.16;2068800;69;20049;-74
2023/01/12 09:13:33;;;;;;;;;;;;;;;2.54;79.88;93245.50;2068674;69;20216;-75
2023/01/12 09:16:03;;;;;;;;;;;;;;;2.01;81.57;93254.91;2068554;69;20088;-75
2023/01/12 09:18:31;;;;;;;;;;;;;;;2.22;81.15;93259.72;2068293;69;20477;-74
2023/01/12 09:21:04;;;;;;;;;;;;;;;2.45;80.01;93262.66;2068767;69;20052;-74
2023/01/12 09:23:29;;;;;;;;;;;;;;;2.18;80.52;93254.50;2068841;69;20474;-73
2023/01/12 09:25:55;;;;;;;;;;;;;;;2.54;80.13;93254.59;2068642;69;20492;-74
2023/01/12 09:28:20;;;;;;;;;;;;;;;2.32;79.21;93255.16;2065271;69;20080;-76
2023/01/12 09:30:46;;;;;;;;;;;;;;;2.59;79.88;93247.38;2068588;69;20071;-75
2023/01/12 09:33:11;;;;;;;;;;;;;;;2.89;79.57;93243.31;2068436;69;20045;-76
2023/01/12 09:35:37;;;;;;;;;;;;;;;2.69;78.85;93236.50;2068483;69;20110;-75
2023/01/12 09:38:03;;;;;;;;;;;;;;;2.22;81.70;93241.00;2062331;69;20052;-78
2023/01/12 09:40:28;;;;;;;;;;;;;;;2.85;79.90;93240.88;2068772;69;20382;-78
2023/01/12 09:48:24;;;;;;;;;;;;;;;2.44;80.44;93248.03;2068480;69;20077;-77
2023/01/12 09:51:09;;;;;;;;;;;;;;;3.27;79.36;93251.84;2065272;69;20485;-79
2023/01/12 09:53:37;;;;;;;;;;;;;;;3.34;78.56;93242.03;2068455;69;20060;-78
2023/01/12 09:56:02;;;;;;;;;;;;;;;3.15;77.89;93251.41;2068080;69;20113;-81
2023/01/12 09:58:34;;;;;;;;;;;;;;;3.37;77.75;93252.06;2068404;69;20144;-81
2023/01/12 10:01:00;;;;;;;;;;;;;;;3.48;77.69;93248.94;2065056;69;20049;-82
2023/01/12 10:03:28;;;;;;;;;;;;;;;3.64;76.95;93244.91;2068238;69;20041;-77
2023/01/12 10:05:59;;;;;;;;;;;;;;;3.86;76.87;93240.69;2068362;69;20083;-76
2023/01/12 10:08:28;;;;;;;;;;;;;;;4.00;76.63;93241.28;2068413;69;20048;-76
2023/01/12 10:11:14;;;;;;;;;;;;;;;4.14;77.23;93248.16;2068352;69;20065;-77
2023/01/12 10:13:51;;;;;;;;;;;;;;;3.89;75.71;93236.03;2068536;69;20047;-78
2023/01/12 10:16:25;;;;;;;;;;;;;;;2.85;79.74;93245.69;2068508;69;20049;-78
2023/01/12 10:18:55;;;;;;;;;;;;;;;3.17;79.29;93243.28;2068389;69;20045;-77
2023/01/12 10:21:22;;;;;;;;;;;;;;;3.73;78.82;93238.81;2068421;69;20106;-80
2023/01/12 10:23:49;;;;;;;;;;;;;;;3.99;77.06;93240.53;2064961;69;20041;-77
2023/01/12 10:26:19;;;;;;;;;;;;;;;4.24;76.11;93231.63;2068276;69;20508;-74
2023/01/12 10:28:45;;;;;;;;;;;;;;;4.10;76.92;93228.28;2068438;69;20172;-79
2023/01/12 10:31:24;;;;;;;;;;;;;;;3.70;77.57;93219.69;2067667;69;20080;-79
2023/01/12 10:34:02;;;;;;;;;;;;;;;4.37;76.21;93211.94;2068220;69;20048;-79
2023/01/12 10:36:29;;;;;;;;;;;;;;;4.33;76.65;93206.00;2068220;69;20490;-79
2023/01/12 10:39:00;;;;;;;;;;;;;;;4.58;75.55;93200.56;2064883;69;20073;-79
2023/01/12 10:41:27;;;;;;;;;;;;;;;4.89;74.80;93192.88;2068245;69;20056;-77
2023/01/12 10:43:58;;;;;;;;;;;;;;;4.99;74.35;93193.03;2068204;69;20043;-73
2023/01/12 10:46:26;;;;;;;;;;;;;;;5.26;74.03;93194.06;2068378;69;20156;-78
2023/01/12 10:48:52;;;;;;;;;;;;;;;5.09;74.68;93196.75;2064850;69;20393;-78
2023/01/12 10:51:28;;;;;;;;;;;;;;;5.49;73.98;93196.00;2068219;69;20036;-75
2023/01/12 10:54:15;;;;;;;;;;;;;;;5.14;73.99;93186.69;2068260;69;20175;-74
2023/01/12 10:56:42;;;;;;;;;;;;;;;5.31;74.29;93170.78;2068211;69;20148;-74
2023/01/12 10:59:11;;;;;;;;;;;;;;;5.44;73.05;93166.25;2068227;69;20045;-74
2023/01/12 11:01:46;;;;;;;;;;;;;;;5.08;71.38;93170.84;2068056;69;20069;-82
2023/01/12 11:04:13;;;;;;;;;;;;;;;5.10;72.52;93165.47;2068313;69;20045;-73
2023/01/12 11:06:44;;;;;;;;;;;;;;;5.64;71.18;93164.47;2068210;69;20079;-75
2023/01/12 11:09:16;;;;;;;;;;;;;;;5.81;70.38;93137.34;2068235;69;20049;-75
2023/01/12 11:11:42;;;;;;;;;;;;;;;5.43;69.65;93139.63;2068296;69;20041;-76
2023/01/12 11:14:17;;;;;;;;;;;;;;;5.29;70.96;93139.88;2068324;69;20048;-75
2023/01/12 11:16:49;;;;;;;;;;;;;;;5.24;71.25;93140.84;2068164;69;20472;-77
2023/01/12 11:19:33;;;;;;;;;;;;;;;5.50;71.65;93145.19;2068491;69;20100;-75
2023/01/12 11:22:01;;;;;;;;;;;;;;;5.85;71.52;93126.50;2068405;69;20041;-78
2023/01/12 11:24:32;;;;;;;;;;;;;;;5.75;71.72;93120.06;2068538;69;20044;-74
2023/01/12 11:27:00;;;;;;;;;;;;;;;6.00;70.70;93111.72;2068256;69;20041;-76
2023/01/12 11:29:26;;;;;;;;;;;;;;;5.66;70.50;93115.09;2068213;69;20041;-78
2023/01/12 11:31:54;;;;;;;;;;;;;;;5.67;70.66;93113.78;2067653;69;20048;-77
2023/01/12 11:34:24;;;;;;;;;;;;;;;6.28;70.22;93098.63;2068301;69;20037;-76
2023/01/12 11:36:51;;;;;;;;;;;;;;;5.91;69.47;93103.94;2068465;69;20044;-73
2023/01/12 11:39:24;;;;;;;;;;;;;;;5.49;70.24;93101.78;2065071;69;20075;-78
2023/01/12 11:44:44;;;;;;;;;;;;;;;5.83;71.65;93106.78;2068279;69;20052;-77
2023/01/12 11:47:12;;;;;;;;;;;;;;;6.13;70.12;93081.97;2068061;69;20048;-80
2023/01/12 11:49:40;;;;;;;;;;;;;;;5.92;68.34;93085.88;2064854;69;20076;-79
2023/01/12 11:52:09;;;;;;;;;;;;;;;5.57;69.58;93085.72;2068433;69;20053;-77
2023/01/12 11:54:35;;;;;;;;;;;;;;;5.42;71.65;93073.94;2068675;69;20104;-78
2023/01/12 11:57:13;;;;;;;;;;;;;;;5.84;69.48;93074.72;2068728;69;20152;-80
2023/01/12 11:59:38;;;;;;;;;;;;;;;5.30;70.88;93076.41;2068652;69;20044;-73
2023/01/12 12:02:33;;;;;;;;;;;;;;;5.30;71.09;93077.16;2068480;69;20202;-75
2023/01/12 12:05:05;;;;;;;;;;;;;;;5.85;70.15;93055.91;2051206;70;20074;-77
2023/01/12 12:07:55;;;;;;;;;;;;;;;5.67;70.17;93060.72;2051393;70;20234;-75
2023/01/12 12:10:21;;;;;;;;;;;;;;;5.37;70.80;93056.09;2051517;70;20050;-78
2023/01/12 12:12:59;;;;;;;;;;;;;;;5.28;71.91;93056.72;2051319;70;20153;-76
2023/01/12 12:15:32;;;;;;;;;;;;;;;5.73;70.78;93060.50;2051392;70;20154;-74
2023/01/12 12:17:58;;;;;;;;;;;;;;;5.96;70.46;93061.06;2051267;70;20049;-81
2023/01/12 12:20:33;;;;;;;;;;;;;;;6.00;70.18;93043.88;2051392;70;20066;-79
2023/01/12 12:23:17;;;;;;;;;;;;;;;5.45;70.19;93034.47;2051472;70;20043;-76
2023/01/12 12:25:55;;;;;;;;;;;;;;;5.22;70.42;93023.44;2051516;70;20055;-76
2023/01/12 12:28:26;;;;;;;;;;;;;;;4.67;72.31;93021.50;2054106;70;20090;-80
2023/01/12 12:31:15;;;;;;;;;;;;;;;5.19;72.65;93010.63;2056770;70;20094;-76
2023/01/12 12:33:56;;;;;;;;;;;;;;;5.63;70.71;92995.38;2056740;70;20113;-76
2023/01/12 12:36:44;;;;;;;;;;;;;;;5.58;70.49;92988.72;2057020;70;20019;-79
2023/01/12 12:39:10;;;;;;;;;;;;;;;5.35;71.40;92998.03;2056407;70;20047;-77
2023/01/12 12:47:35;;;;;;;;;;;;;;;4.88;72.57;93003.75;2074606;69;20048;-74
2023/01/12 12:50:01;;;;;;;;;;;;;;;5.43;71.57;93019.56;2071018;69;20461;-76
2023/01/12 12:52:36;;;;;;;;;;;;;;;5.50;71.24;93002.03;2070543;69;20049;-73
2023/01/12 12:55:03;;;;;;;;;;;;;;;5.02;72.22;92991.75;2070834;69;20044;-77
2023/01/12 12:57:29;;;;;;;;;;;;;;;4.61;74.12;92997.94;2069469;69;20049;-74
2023/01/12 12:59:58;;;;;;;;;;;;;;;4.68;74.33;93003.47;2072548;69;20173;-73
2023/01/12 13:02:31;;;;;;;;;;;;;;;5.61;71.92;92985.53;2068644;69;20056;-73
2023/01/12 13:04:57;;;;;;;;;;;;;;;5.94;70.69;92974.25;2072247;69;20088;-76
2023/01/12 13:07:24;;;;;;;;;;;;;;;5.84;70.74;92971.34;2072033;69;20080;-73
2023/01/12 13:09:50;;;;;;;;;;;;;;;6.03;70.41;92968.00;2071810;69;20049;-78
2023/01/12 13:12:20;;;;;;;;;;;;;;;5.79;70.55;92968.81;2069689;69;20111;-81
2023/01/12 13:15:05;;;;;;;;;;;;;;;5.73;70.56;92966.25;2069579;69;20484;-74
2023/01/12 13:17:31;;;;;;;;;;;;;;;5.69;70.84;92962.38;2065625;69;20055;-81
2023/01/12 13:20:05;;;;;;;;;;;;;;;5.81;70.83;92960.56;2069071;69;20136;-76
2023/01/12 13:22:31;;;;;;;;;;;;;;;6.10;70.38;92950.44;2068821;69;20068;-81
2023/01/12 13:24:59;;;;;;;;;;;;;;;5.96;69.93;92959.72;2069020;69;20164;-81
2023/01/12 13:27:44;;;;;;;;;;;;;;;5.94;71.16;92968.66;2069232;69;20496;-79
2023/01/12 13:30:18;;;;;;;;;;;;;;;6.04;71.02;92940.81;2068474;69;20059;-81
2023/01/12 13:32:53;;;;;;;;;;;;;;;6.01;70.81;92925.19;2068478;69;20072;-73
2023/01/12 13:35:45;;;;;;;;;;;;;;;5.59;72.06;92934.38;2068662;69;20045;-74
2023/01/12 13:38:30;;;;;;;;;;;;;;;5.87;71.43;92941.53;2060964;69;20140;-79